createdAt,value
2022-11-28T00:01:32.790Z,88336.31
2022-11-28T00:04:17.450Z,88330.63
2022-11-28T00:07:02.234Z,88320.28
2022-11-28T00:09:47.648Z,88311.66
2022-11-28T00:12:32.221Z,88308.00
2022-11-28T00:15:17.092Z,88311.47
2022-11-28T00:18:01.868Z,88309.50
2022-11-28T00:20:46.770Z,88297.25
2022-11-28T00:23:31.461Z,88294.84
2022-11-28T00:26:16.039Z,88294.63
2022-11-28T00:29:00.943Z,88280.94
2022-11-28T00:31:45.630Z,88283.91
2022-11-28T00:34:30.377Z,88286.72
2022-11-28T00:37:15.074Z,88277.84
2022-11-28T00:40:00.083Z,88277.38
2022-11-28T00:42:44.756Z,88273.72
2022-11-28T00:45:29.626Z,88278.16
2022-11-28T00:48:14.459Z,88270.97
2022-11-28T00:50:59.363Z,88275.59
2022-11-28T00:53:44.058Z,88273.16
2022-11-28T00:56:28.870Z,88278.66
2022-11-28T00:59:13.708Z,88283.97
2022-11-28T01:01:58.446Z,88288.44
2022-11-28T01:04:44.645Z,88283.50
2022-11-28T01:07:29.650Z,88279.09
2022-11-28T01:10:14.344Z,88273.31
2022-11-28T01:12:59.086Z,88269.53
2022-11-28T01:15:43.928Z,88267.44
2022-11-28T01:18:28.591Z,88267.38
2022-11-28T01:21:13.403Z,88267.28
2022-11-28T01:23:58.221Z,88265.09
2022-11-28T01:26:42.914Z,88260.63
2022-11-28T01:29:27.798Z,88253.53
2022-11-28T01:32:12.374Z,88256.97
2022-11-28T01:34:57.157Z,88262.81
2022-11-28T01:37:41.870Z,88253.88
2022-11-28T01:40:26.695Z,88259.63
2022-11-28T01:43:11.372Z,88257.78
2022-11-28T01:45:56.256Z,88259.09
2022-11-28T01:48:41.035Z,88258.47
2022-11-28T01:51:25.809Z,88258.66
2022-11-28T01:54:10.739Z,88254.88
2022-11-28T01:56:55.501Z,88254.16
2022-11-28T01:59:40.282Z,88250.19
2022-11-28T02:02:25.153Z,88249.28
2022-11-28T02:05:09.728Z,88245.09
2022-11-28T02:07:54.577Z,88250.31
2022-11-28T02:10:39.734Z,88245.44
2022-11-28T02:13:24.514Z,88243.03
2022-11-28T02:16:09.313Z,88244.66
2022-11-28T02:18:54.098Z,88240.34
2022-11-28T02:21:38.824Z,88233.28
2022-11-28T02:24:23.496Z,88240.34
2022-11-28T02:27:08.270Z,88239.34
2022-11-28T02:29:53.019Z,88233.84
2022-11-28T02:32:37.661Z,88229.44
2022-11-28T02:35:22.355Z,88222.94
2022-11-28T02:38:07.094Z,88215.44
2022-11-28T02:40:51.816Z,88219.13
2022-11-28T02:43:36.670Z,88217.63
2022-11-28T02:46:21.509Z,88216.13
2022-11-28T02:49:06.218Z,88212.84
2022-11-28T02:51:50.992Z,88213.53
2022-11-28T02:54:35.905Z,88204.75
2022-11-28T02:57:20.606Z,88205.63
2022-11-28T03:00:05.284Z,88191.94
2022-11-28T03:02:49.966Z,88185.66
2022-11-28T03:05:34.848Z,88175.69
2022-11-28T03:08:19.587Z,88180.34
2022-11-28T03:11:04.346Z,88178.59
2022-11-28T03:13:49.155Z,88179.06
2022-11-28T03:16:33.977Z,88167.56
2022-11-28T03:19:18.739Z,88159.59
2022-11-28T03:22:03.388Z,88154.59
2022-11-28T03:24:48.096Z,88154.00
2022-11-28T03:27:32.884Z,88147.66
2022-11-28T03:30:17.726Z,88134.81
2022-11-28T03:33:02.443Z,88134.66
2022-11-28T03:35:47.368Z,88145.44
2022-11-28T03:38:32.029Z,88145.84
2022-11-28T03:41:16.810Z,88143.88
2022-11-28T03:44:01.556Z,88143.47
2022-11-28T03:46:46.764Z,88147.25
2022-11-28T03:49:31.856Z,88146.75
2022-11-28T03:52:16.566Z,88141.50
2022-11-28T03:55:01.383Z,88141.88
2022-11-28T03:57:46.290Z,88142.34
2022-11-28T04:00:30.972Z,88132.25
2022-11-28T04:03:15.856Z,88129.34
2022-11-28T04:06:00.557Z,88118.28
2022-11-28T04:08:45.323Z,88107.44
2022-11-28T04:11:30.207Z,88105.84
2022-11-28T04:14:14.941Z,88102.66
2022-11-28T04:16:59.816Z,88101.31
2022-11-28T04:19:44.539Z,88098.53
2022-11-28T04:22:29.422Z,88094.63
2022-11-28T04:25:14.286Z,88093.63
2022-11-28T04:27:59.021Z,88090.31
2022-11-28T04:30:43.761Z,88096.13
2022-11-28T04:33:28.299Z,88088.53
2022-11-28T04:36:13.285Z,88089.16
2022-11-28T04:38:57.920Z,88085.47
2022-11-28T04:41:42.816Z,88090.44
2022-11-28T04:44:27.380Z,88091.34
2022-11-28T04:47:12.131Z,88090.63
2022-11-28T04:49:56.910Z,88088.75
2022-11-28T04:52:41.761Z,88089.25
2022-11-28T04:55:26.550Z,88090.28
2022-11-28T04:58:11.312Z,88091.41
2022-11-28T05:00:56.132Z,88085.91
2022-11-28T05:03:42.728Z,88089.72
2022-11-28T05:06:27.963Z,88089.25
2022-11-28T05:09:12.747Z,88091.53
2022-11-28T05:11:57.475Z,88091.72
2022-11-28T05:14:42.590Z,88100.63
2022-11-28T05:17:27.486Z,88097.13
2022-11-28T05:20:12.176Z,88107.97
2022-11-28T05:22:56.937Z,88106.59
2022-11-28T05:25:41.634Z,88104.88
2022-11-28T05:28:26.392Z,88097.03
2022-11-28T05:31:11.139Z,88102.78
2022-11-28T05:33:55.882Z,88103.09
2022-11-28T05:36:40.618Z,88103.91
2022-11-28T05:39:25.394Z,88099.63
2022-11-28T05:42:10.198Z,88101.72
2022-11-28T05:44:55.052Z,88102.50
2022-11-28T05:47:39.842Z,88102.09
2022-11-28T05:50:24.595Z,88102.22
2022-11-28T05:53:09.351Z,88099.41
2022-11-28T05:55:54.172Z,88109.28
2022-11-28T05:58:38.999Z,88099.63
2022-11-28T06:01:23.863Z,88107.09
2022-11-28T06:04:08.789Z,88115.25
2022-11-28T06:06:53.379Z,88106.78
2022-11-28T06:09:38.078Z,88104.47
2022-11-28T06:12:22.801Z,88117.13
2022-11-28T06:15:07.628Z,88115.16
2022-11-28T06:17:52.403Z,88120.94
2022-11-28T06:20:37.351Z,88116.66
2022-11-28T06:23:22.050Z,88123.25
2022-11-28T06:26:06.812Z,88124.31
2022-11-28T06:28:51.441Z,88129.47
2022-11-28T06:31:36.396Z,88120.50
2022-11-28T06:34:21.009Z,88122.97
2022-11-28T06:37:05.761Z,88124.22
2022-11-28T06:39:50.519Z,88118.13
2022-11-28T06:42:35.315Z,88108.69
2022-11-28T06:45:20.191Z,88114.66
2022-11-28T06:48:04.889Z,88113.47
2022-11-28T06:50:49.699Z,88100.78
2022-11-28T06:53:34.379Z,88105.88
2022-11-28T06:56:19.222Z,88108.75
2022-11-28T06:59:03.884Z,88106.03
2022-11-28T07:01:48.821Z,88108.00
2022-11-28T07:04:33.914Z,88105.22
2022-11-28T07:07:18.745Z,88100.41
2022-11-28T07:10:03.418Z,88109.88
2022-11-28T07:12:48.042Z,88110.50
2022-11-28T07:15:32.946Z,88114.88
2022-11-28T07:18:17.631Z,88112.84
2022-11-28T07:21:02.385Z,88108.88
2022-11-28T07:23:47.109Z,88112.78
2022-11-28T07:26:31.887Z,88112.91
2022-11-28T07:29:16.602Z,88117.31
2022-11-28T07:32:01.580Z,88116.13
2022-11-28T07:34:50.032Z,88126.63
2022-11-28T07:37:35.226Z,88115.72
2022-11-28T07:40:19.961Z,88117.16
2022-11-28T07:43:04.606Z,88114.72
2022-11-28T07:46:00.491Z,88109.38
2022-11-28T07:48:45.694Z,88115.56
2022-11-28T07:51:30.546Z,88112.06
2022-11-28T07:54:15.315Z,88110.69
2022-11-28T07:57:15.398Z,88114.34
2022-11-28T08:00:00.459Z,88117.25
2022-11-28T08:02:45.282Z,88114.88
2022-11-28T08:05:29.978Z,88121.06
2022-11-28T08:08:14.715Z,88114.16
2022-11-28T08:10:59.554Z,88107.66
2022-11-28T08:13:44.257Z,88102.16
2022-11-28T08:16:28.961Z,88108.56
2022-11-28T08:19:13.718Z,88109.16
2022-11-28T08:21:58.721Z,88114.03
2022-11-28T08:24:44.137Z,88115.25
2022-11-28T08:27:29.598Z,88115.44
2022-11-28T08:30:14.297Z,88108.34
2022-11-28T08:32:59.146Z,88109.75
2022-11-28T08:35:43.874Z,88111.53
2022-11-28T08:38:28.586Z,88108.22
2022-11-28T08:41:13.393Z,88105.91
2022-11-28T08:43:57.991Z,88102.69
2022-11-28T08:46:42.683Z,88098.06
2022-11-28T08:49:27.375Z,88093.84
2022-11-28T08:52:12.243Z,88090.56
2022-11-28T08:54:56.872Z,88100.84
2022-11-28T08:57:41.676Z,88095.25
2022-11-28T09:00:26.407Z,88085.75
2022-11-28T09:03:11.179Z,88091.25
2022-11-28T09:05:55.900Z,88081.25
2022-11-28T09:08:40.667Z,88086.31
2022-11-28T09:11:25.501Z,88088.03
2022-11-28T09:14:10.365Z,88088.53
2022-11-28T09:16:55.192Z,88094.53
2022-11-28T09:19:40.343Z,88090.50
2022-11-28T09:22:25.606Z,88094.13
2022-11-28T09:25:10.247Z,88091.56
2022-11-28T09:27:55.019Z,88091.31
2022-11-28T09:30:39.705Z,88093.91
2022-11-28T09:33:24.525Z,88098.56
2022-11-28T09:36:09.214Z,88097.22
2022-11-28T09:38:54.034Z,88091.53
2022-11-28T09:41:38.818Z,88093.09
2022-11-28T09:44:23.581Z,88102.28
2022-11-28T09:47:08.326Z,88097.03
2022-11-28T09:49:53.165Z,88104.19
2022-11-28T09:52:38.147Z,88097.47
2022-11-28T09:55:23.191Z,88099.09
2022-11-28T09:58:08.038Z,88088.94
2022-11-28T10:00:55.575Z,88095.94
2022-11-28T10:03:40.565Z,88091.81
2022-11-28T10:06:25.252Z,88081.50
2022-11-28T10:09:09.920Z,88085.16
2022-11-28T10:11:54.789Z,88080.13
2022-11-28T10:14:39.472Z,88082.06
2022-11-28T10:17:24.294Z,88085.44
2022-11-28T10:20:09.101Z,88077.97
2022-11-28T10:22:53.864Z,88071.44
2022-11-28T10:25:38.679Z,88062.41
2022-11-28T10:28:23.385Z,88062.25
2022-11-28T10:31:08.316Z,88064.53
2022-11-28T10:33:52.988Z,88061.59
2022-11-28T10:36:37.746Z,88062.50
2022-11-28T10:39:22.435Z,88052.78
2022-11-28T10:42:07.292Z,88052.09
2022-11-28T10:44:52.064Z,88053.72
2022-11-28T10:47:36.804Z,88041.59
2022-11-28T10:50:21.648Z,88041.59
2022-11-28T10:53:06.655Z,88033.44
2022-11-28T10:55:51.449Z,88025.81
2022-11-28T10:58:36.136Z,88028.75
2022-11-28T11:01:21.160Z,88028.75
2022-11-28T11:04:05.790Z,88020.25
2022-11-28T11:07:07.891Z,88017.06
2022-11-28T11:09:54.947Z,88030.88
2022-11-28T11:12:39.654Z,88033.41
2022-11-28T11:15:24.672Z,88029.81
2022-11-28T11:18:09.357Z,88031.47
2022-11-28T11:20:54.085Z,88026.25
2022-11-28T11:23:38.899Z,88028.41
2022-11-28T11:26:23.737Z,88022.38
2022-11-28T11:29:08.513Z,88024.28
2022-11-28T11:31:53.362Z,88022.31
2022-11-28T11:34:38.163Z,88020.19
2022-11-28T11:37:22.993Z,88019.56
2022-11-28T11:40:07.851Z,88017.72
2022-11-28T11:42:52.531Z,88015.34
2022-11-28T11:45:37.313Z,88015.00
2022-11-28T11:48:21.822Z,88013.28
2022-11-28T11:51:06.615Z,88011.41
2022-11-28T11:53:51.315Z,88016.06
2022-11-28T11:56:36.165Z,88015.38
2022-11-28T11:59:20.739Z,88006.16
2022-11-28T12:02:05.597Z,88009.97
2022-11-28T12:04:55.214Z,88010.00
2022-11-28T12:07:40.601Z,88001.63
2022-11-28T12:10:25.251Z,87995.75
2022-11-28T12:13:09.964Z,87994.69
2022-11-28T12:15:54.869Z,87992.09
2022-11-28T12:18:39.502Z,87989.28
2022-11-28T12:21:24.237Z,87981.81
2022-11-28T12:24:09.126Z,87981.47
2022-11-28T12:26:54.008Z,87978.84
2022-11-28T12:29:38.963Z,87965.16
2022-11-28T12:32:23.654Z,87977.16
2022-11-28T12:35:08.459Z,87967.28
2022-11-28T12:40:57.987Z,87971.09
2022-11-28T12:43:42.793Z,87972.81
2022-11-28T12:46:27.453Z,87968.25
2022-11-28T12:49:12.129Z,87971.34
2022-11-28T12:51:56.922Z,87971.56
2022-11-28T12:54:41.773Z,87967.03
2022-11-28T12:57:26.463Z,87972.28
2022-11-28T13:00:11.163Z,87977.34
2022-11-28T13:02:55.885Z,87974.19
2022-11-28T13:05:40.430Z,87981.50
2022-11-28T13:08:25.285Z,87976.47
2022-11-28T13:11:09.903Z,87976.28
2022-11-28T13:13:54.724Z,87975.25
2022-11-28T13:16:39.536Z,87977.16
2022-11-28T13:19:24.722Z,87983.25
2022-11-28T13:22:09.439Z,87983.75
2022-11-28T13:24:54.230Z,87977.50
2022-11-28T13:27:39.010Z,87986.03
2022-11-28T13:30:23.788Z,87975.44
2022-11-28T13:33:08.510Z,87977.53
2022-11-28T13:35:53.166Z,87984.47
2022-11-28T13:38:44.161Z,87980.31
2022-11-28T13:42:09.549Z,87978.91
2022-11-28T13:44:40.561Z,87976.28
2022-11-28T13:47:25.230Z,87981.28
2022-11-28T13:50:10.027Z,87980.53
2022-11-28T13:52:54.707Z,87981.00
2022-11-28T13:55:39.381Z,87982.13
2022-11-28T13:58:24.351Z,87979.66
2022-11-28T14:01:09.040Z,87978.53
2022-11-28T14:03:53.819Z,87984.34
2022-11-28T14:06:38.467Z,87981.03
2022-11-28T14:09:23.296Z,87988.72
2022-11-28T14:12:08.070Z,87986.13
2022-11-28T14:14:53.268Z,87982.97
2022-11-28T14:17:37.974Z,87993.13
2022-11-28T14:20:22.768Z,87993.69
2022-11-28T14:23:08.306Z,87997.50
2022-11-28T14:25:53.174Z,88002.13
2022-11-28T14:28:37.950Z,87997.63
2022-11-28T14:31:23.483Z,87997.28
2022-11-28T14:34:08.640Z,88003.50
2022-11-28T14:36:53.246Z,88007.06
2022-11-28T14:39:38.094Z,88008.22
2022-11-28T14:42:57.801Z,88004.31
2022-11-28T14:45:27.781Z,88006.59
2022-11-28T14:48:12.661Z,88008.81
2022-11-28T14:51:01.748Z,88005.28
2022-11-28T14:53:47.183Z,88010.34
2022-11-28T14:56:32.106Z,88008.75
2022-11-28T14:59:16.826Z,88010.66
2022-11-28T15:02:01.774Z,88004.94
2022-11-28T15:04:46.883Z,87998.75
2022-11-28T15:07:31.651Z,88003.25
2022-11-28T15:10:16.290Z,88002.22
2022-11-28T15:13:01.074Z,88005.53
2022-11-28T15:15:46.023Z,88007.03
2022-11-28T15:18:30.755Z,88010.25
2022-11-28T15:21:15.411Z,88005.22
2022-11-28T15:24:00.116Z,88000.66
2022-11-28T15:26:44.925Z,87996.84
2022-11-28T15:29:29.697Z,87999.09
2022-11-28T15:32:14.525Z,88003.00
2022-11-28T15:34:59.552Z,87997.28
2022-11-28T15:37:44.459Z,88003.50
2022-11-28T15:40:29.262Z,87995.72
2022-11-28T15:43:14.041Z,88006.28
2022-11-28T15:45:58.893Z,88010.09
2022-11-28T15:48:43.644Z,87996.22
2022-11-28T15:51:28.519Z,88004.69
2022-11-28T15:54:15.016Z,88012.09
2022-11-28T15:57:00.015Z,88009.53
2022-11-28T15:59:44.792Z,88009.31
2022-11-28T16:02:29.610Z,88011.09
2022-11-28T16:05:14.558Z,88005.81
2022-11-28T16:07:59.469Z,88002.69
2022-11-28T16:10:44.755Z,88007.28
2022-11-28T16:13:29.571Z,88012.38
2022-11-28T16:16:14.390Z,88013.22
2022-11-28T16:18:58.960Z,88018.66
2022-11-28T16:21:43.674Z,88014.28
2022-11-28T16:24:31.119Z,88014.38
2022-11-28T16:27:18.650Z,88009.94
2022-11-28T16:30:03.435Z,88020.44
2022-11-28T16:32:48.202Z,88017.47
2022-11-28T16:35:33.005Z,88029.22
2022-11-28T16:38:18.031Z,88034.22
2022-11-28T16:41:02.791Z,88025.56
2022-11-28T16:43:47.513Z,88027.06
2022-11-28T16:46:32.340Z,88026.69
2022-11-28T16:49:17.242Z,88034.56
2022-11-28T16:52:02.070Z,88031.38
2022-11-28T16:54:47.001Z,88037.84
2022-11-28T16:57:33.049Z,88044.94
2022-11-28T17:00:17.905Z,88037.16
2022-11-28T17:03:02.784Z,88040.97
2022-11-28T17:05:47.590Z,88043.34
2022-11-28T17:08:32.640Z,88037.88
2022-11-28T17:11:17.319Z,88042.00
2022-11-28T17:14:02.847Z,88039.69
2022-11-28T17:16:48.063Z,88037.81
2022-11-28T17:19:32.945Z,88042.03
2022-11-28T17:22:17.756Z,88040.22
2022-11-28T17:25:02.522Z,88039.59
2022-11-28T17:27:47.378Z,88035.31
2022-11-28T17:30:32.197Z,88039.81
2022-11-28T17:33:17.013Z,88035.25
2022-11-28T17:36:01.560Z,88040.03
2022-11-28T17:38:46.327Z,88034.53
2022-11-28T17:41:31.053Z,88035.63
2022-11-28T17:44:15.880Z,88042.41
2022-11-28T17:47:00.573Z,88039.53
2022-11-28T17:49:46.590Z,88046.81
2022-11-28T17:52:31.658Z,88038.63
2022-11-28T17:55:16.399Z,88043.22
2022-11-28T17:58:01.106Z,88049.28
2022-11-28T18:00:45.789Z,88048.88
2022-11-28T18:03:30.606Z,88049.19
2022-11-28T18:06:15.279Z,88049.19
2022-11-28T18:09:00.024Z,88055.56
2022-11-28T18:11:44.662Z,88050.19
2022-11-28T18:14:29.564Z,88048.59
2022-11-28T18:17:14.352Z,88043.41
2022-11-28T18:19:59.185Z,88045.81
2022-11-28T18:22:44.262Z,88047.50
2022-11-28T18:25:28.990Z,88048.88
2022-11-28T18:28:18.641Z,88053.28
2022-11-28T18:31:04.082Z,88046.00
2022-11-28T18:33:48.838Z,88051.19
2022-11-28T18:36:33.605Z,88050.88
2022-11-28T18:39:18.355Z,88054.88
2022-11-28T18:42:03.045Z,88047.28
2022-11-28T18:44:47.739Z,88047.69
2022-11-28T18:47:32.497Z,88047.00
2022-11-28T18:50:17.239Z,88049.50
2022-11-28T18:53:02.134Z,88051.09
2022-11-28T18:55:46.883Z,88050.97
2022-11-28T18:58:31.576Z,88044.00
2022-11-28T19:01:16.513Z,88046.81
2022-11-28T19:04:01.122Z,88050.88
2022-11-28T19:06:46.097Z,88050.97
2022-11-28T19:09:30.973Z,88054.97
2022-11-28T19:12:15.707Z,88051.75
2022-11-28T19:15:02.328Z,88053.34
2022-11-28T19:17:47.570Z,88056.16
2022-11-28T19:20:32.418Z,88059.22
2022-11-28T19:23:17.168Z,88055.94
2022-11-28T19:26:01.877Z,88055.66
2022-11-28T19:28:46.610Z,88056.84
2022-11-28T19:31:31.439Z,88053.56
2022-11-28T19:34:16.170Z,88060.34
2022-11-28T19:37:00.907Z,88061.03
2022-11-28T19:39:45.723Z,88056.16
2022-11-28T19:42:30.794Z,88062.34
2022-11-28T19:45:15.565Z,88056.53
2022-11-28T19:48:00.440Z,88062.41
2022-11-28T19:50:45.235Z,88065.31
2022-11-28T19:53:29.817Z,88070.69
2022-11-28T19:56:14.621Z,88069.28
2022-11-28T19:58:59.205Z,88074.53
2022-11-28T20:01:43.979Z,88072.03
2022-11-28T20:04:28.594Z,88073.91
2022-11-28T20:07:13.317Z,88072.72
2022-11-28T20:09:57.948Z,88075.13
2022-11-28T20:12:42.678Z,88070.94
2022-11-28T20:15:27.362Z,88068.06
2022-11-28T20:18:12.135Z,88075.41
2022-11-28T20:20:56.874Z,88078.47
2022-11-28T20:23:41.487Z,88079.88
2022-11-28T20:26:26.302Z,88079.56
2022-11-28T20:29:11.019Z,88075.31
2022-11-28T20:31:55.912Z,88081.59
2022-11-28T20:34:40.575Z,88078.59
2022-11-28T20:37:25.469Z,88083.47
2022-11-28T20:40:10.038Z,88088.16
2022-11-28T20:42:54.862Z,88084.97
2022-11-28T20:45:39.642Z,88081.97
2022-11-28T20:48:24.403Z,88086.88
2022-11-28T20:51:09.206Z,88089.44
2022-11-28T20:53:54.008Z,88081.47
2022-11-28T20:57:05.166Z,88080.28
2022-11-28T20:59:44.020Z,88089.75
2022-11-28T21:02:29.178Z,88078.28
2022-11-28T21:05:14.484Z,88086.25
2022-11-28T21:07:59.278Z,88081.75
2022-11-28T21:10:43.989Z,88085.03
2022-11-28T21:13:28.801Z,88078.69
2022-11-28T21:16:13.525Z,88078.47
2022-11-28T21:18:58.150Z,88074.78
2022-11-28T21:21:43.069Z,88070.78
2022-11-28T21:24:28.003Z,88079.97
2022-11-28T21:27:12.816Z,88075.41
2022-11-28T21:29:57.740Z,88069.03
2022-11-28T21:32:42.559Z,88076.00
2022-11-28T21:35:27.375Z,88077.00
2022-11-28T21:38:12.189Z,88075.91
2022-11-28T21:40:56.935Z,88082.16
2022-11-28T21:43:41.807Z,88076.56
2022-11-28T21:46:26.458Z,88089.38
2022-11-28T21:49:11.303Z,88088.06
2022-11-28T21:51:56.111Z,88085.75
2022-11-28T21:54:40.969Z,88087.81
2022-11-28T21:57:25.766Z,88091.03
2022-11-28T22:00:20.739Z,88095.94
2022-11-28T22:03:15.416Z,88092.84
2022-11-28T22:06:00.711Z,88091.56
2022-11-28T22:08:45.401Z,88081.63
2022-11-28T22:11:30.188Z,88089.84
2022-11-28T22:14:14.932Z,88083.69
2022-11-28T22:16:59.623Z,88088.75
2022-11-28T22:19:44.418Z,88087.78
2022-11-28T22:22:28.993Z,88082.13
2022-11-28T22:25:13.810Z,88081.63
2022-11-28T22:27:58.559Z,88081.69
2022-11-28T22:30:43.295Z,88079.59
2022-11-28T22:33:28.027Z,88084.56
2022-11-28T22:36:12.689Z,88081.63
2022-11-28T22:38:57.390Z,88082.25
2022-11-28T22:41:42.251Z,88077.47
2022-11-28T22:44:27.002Z,88079.72
2022-11-28T22:47:11.761Z,88088.44
2022-11-28T22:49:56.571Z,88082.16
2022-11-28T22:52:41.211Z,88088.41
2022-11-28T22:55:26.018Z,88081.63
2022-11-28T22:58:10.587Z,88085.41
2022-11-28T23:00:55.314Z,88083.00
2022-11-28T23:03:40.032Z,88085.53
2022-11-28T23:06:24.819Z,88087.19
2022-11-28T23:09:09.679Z,88086.28
2022-11-28T23:11:54.534Z,88081.84
2022-11-28T23:14:39.250Z,88084.31
2022-11-28T23:17:23.919Z,88077.34
2022-11-28T23:20:08.769Z,88076.84
2022-11-28T23:22:53.315Z,88074.91
2022-11-28T23:25:38.086Z,88079.44
2022-11-28T23:28:22.891Z,88077.63
2022-11-28T23:31:07.809Z,88078.06
2022-11-28T23:33:52.498Z,88077.47
2022-11-28T23:36:42.045Z,88082.09
2022-11-28T23:39:27.477Z,88079.03
2022-11-28T23:42:12.168Z,88077.53
2022-11-28T23:44:57.026Z,88074.38
2022-11-28T23:47:41.824Z,88066.63
2022-11-28T23:50:26.583Z,88071.50
2022-11-28T23:53:11.311Z,88071.28
2022-11-28T23:55:56.171Z,88065.44
2022-11-28T23:58:40.998Z,88065.63
